createdAt,value
2023-04-20T00:01:47.920Z,3.13
2023-04-20T00:04:15.638Z,2.77
2023-04-20T00:06:44.012Z,3.57
2023-04-20T00:09:15.381Z,3.00
2023-04-20T00:11:42.690Z,2.60
2023-04-20T00:14:09.778Z,2.87
2023-04-20T00:16:36.895Z,2.83
2023-04-20T00:19:04.012Z,2.93
2023-04-20T00:21:31.345Z,2.57
2023-04-20T00:23:58.373Z,2.80
2023-04-20T00:26:25.062Z,2.90
2023-04-20T00:28:53.989Z,2.70
2023-04-20T00:31:21.042Z,3.17
2023-04-20T00:33:48.434Z,3.03
2023-04-20T00:36:15.727Z,3.47
2023-04-20T00:38:42.788Z,2.83
2023-04-20T00:41:09.557Z,3.40
2023-04-20T00:43:37.756Z,2.90
2023-04-20T00:46:06.251Z,2.80
2023-04-20T00:48:33.305Z,2.90
2023-04-20T00:51:00.333Z,2.60
2023-04-20T00:53:28.409Z,3.60
2023-04-20T00:55:56.352Z,2.77
2023-04-20T00:58:23.395Z,3.50
2023-04-20T01:00:51.613Z,2.77
2023-04-20T01:03:18.793Z,3.47
2023-04-20T01:05:48.923Z,3.50
2023-04-20T01:08:15.618Z,4.00
2023-04-20T01:10:42.673Z,3.30
2023-04-20T01:13:09.759Z,3.03
2023-04-20T01:15:36.982Z,3.33
2023-04-20T01:18:06.037Z,3.30
2023-04-20T01:20:33.758Z,3.40
2023-04-20T01:23:01.107Z,3.87
2023-04-20T01:25:27.723Z,3.70
2023-04-20T01:27:54.786Z,3.50
2023-04-20T01:30:22.552Z,3.50
2023-04-20T01:32:49.901Z,3.57
2023-04-20T01:35:17.160Z,3.40
2023-04-20T01:37:45.240Z,3.30
2023-04-20T01:40:13.522Z,3.57
2023-04-20T01:42:40.770Z,3.67
2023-04-20T01:45:07.918Z,4.07
2023-04-20T01:47:35.899Z,3.80
2023-04-20T01:50:03.125Z,3.03
2023-04-20T01:52:30.244Z,4.27
2023-04-20T01:54:57.342Z,2.90
2023-04-20T01:57:25.202Z,3.47
2023-04-20T01:59:52.282Z,3.33
2023-04-20T02:02:19.422Z,3.50
2023-04-20T02:04:46.088Z,3.13
2023-04-20T02:07:13.167Z,3.63
2023-04-20T02:09:40.321Z,4.20
2023-04-20T02:12:07.004Z,3.10
2023-04-20T02:14:34.023Z,3.47
2023-04-20T02:17:00.984Z,3.77
2023-04-20T02:19:28.142Z,3.53
2023-04-20T02:21:55.230Z,3.33
2023-04-20T02:24:22.314Z,4.10
2023-04-20T02:26:49.477Z,3.27
2023-04-20T02:29:16.947Z,3.10
2023-04-20T02:31:44.696Z,3.50
2023-04-20T02:34:11.855Z,2.37
2023-04-20T02:36:38.976Z,2.50
2023-04-20T02:39:06.080Z,3.00
2023-04-20T02:41:34.717Z,3.13
2023-04-20T02:44:03.426Z,2.97
2023-04-20T02:46:33.131Z,3.00
2023-04-20T02:49:00.680Z,2.90
2023-04-20T02:51:28.815Z,3.43
2023-04-20T02:53:56.197Z,3.27
2023-04-20T02:56:29.780Z,3.07
2023-04-20T02:59:02.119Z,3.03
2023-04-20T03:01:39.422Z,3.10
2023-04-20T03:04:19.310Z,3.00
2023-04-20T03:06:53.712Z,2.33
2023-04-20T03:09:26.690Z,2.40
2023-04-20T03:11:59.762Z,1.97
2023-04-20T03:14:44.247Z,2.70
2023-04-20T03:17:11.423Z,2.23
2023-04-20T03:19:38.511Z,2.60
2023-04-20T03:22:06.368Z,2.50
2023-04-20T03:24:35.229Z,2.50
2023-04-20T03:27:11.273Z,2.50
2023-04-20T03:29:48.947Z,2.57
2023-04-20T03:32:16.368Z,2.83
2023-04-20T03:34:43.471Z,3.10
2023-04-20T03:37:10.760Z,3.10
2023-04-20T03:39:37.793Z,2.90
2023-04-20T03:42:06.171Z,2.37
2023-04-20T03:44:33.256Z,2.93
2023-04-20T03:47:00.433Z,2.77
2023-04-20T03:49:29.776Z,3.17
2023-04-20T03:51:56.791Z,3.20
2023-04-20T03:54:23.832Z,2.60
2023-04-20T03:56:50.856Z,2.70
2023-04-20T03:59:18.833Z,2.93
2023-04-20T04:01:48.544Z,2.97
2023-04-20T04:04:17.042Z,2.97
2023-04-20T04:06:44.275Z,3.33
2023-04-20T04:09:11.375Z,3.60
2023-04-20T04:11:37.982Z,3.40
2023-04-20T04:14:05.432Z,3.50
2023-04-20T04:16:33.910Z,3.20
2023-04-20T04:19:01.262Z,2.93
2023-04-20T04:21:28.742Z,3.87
2023-04-20T04:24:01.955Z,3.33
2023-04-20T04:26:51.041Z,3.90
2023-04-20T04:29:20.117Z,3.27
2023-04-20T04:31:47.339Z,3.63
2023-04-20T04:34:18.763Z,3.70
2023-04-20T04:36:50.389Z,3.50
2023-04-20T04:39:22.907Z,3.73
2023-04-20T04:42:05.193Z,4.20
2023-04-20T04:44:41.293Z,3.47
2023-04-20T04:47:11.790Z,4.13
2023-04-20T04:49:40.759Z,3.90
2023-04-20T04:52:08.718Z,4.33
2023-04-20T04:54:36.247Z,4.70
2023-04-20T04:57:03.473Z,4.60
2023-04-20T04:59:30.748Z,4.37
2023-04-20T05:01:57.832Z,4.83
2023-04-20T05:04:25.080Z,4.80
2023-04-20T05:06:51.680Z,4.50
2023-04-20T05:09:18.947Z,4.63
2023-04-20T05:11:46.280Z,4.60
2023-04-20T05:14:13.381Z,5.20
2023-04-20T05:16:40.726Z,4.50
2023-04-20T05:19:07.804Z,4.30
2023-04-20T05:21:34.857Z,4.83
2023-04-20T05:24:01.922Z,4.83
2023-04-20T05:26:28.953Z,4.10
2023-04-20T05:28:55.969Z,4.57
2023-04-20T05:31:22.983Z,4.43
2023-04-20T05:33:50.260Z,5.17
2023-04-20T05:36:17.376Z,5.00
2023-04-20T05:38:44.400Z,4.93
2023-04-20T05:41:11.408Z,5.97
2023-04-20T05:43:38.581Z,4.93
2023-04-20T05:46:05.892Z,4.43
2023-04-20T05:48:32.956Z,4.97
2023-04-20T05:51:00.058Z,5.77
2023-04-20T05:53:27.148Z,5.83
2023-04-20T05:55:54.197Z,5.27
2023-04-20T05:58:20.859Z,5.23
2023-04-20T06:00:48.223Z,5.83
2023-04-20T06:03:15.454Z,5.40
2023-04-20T06:05:42.830Z,4.30
2023-04-20T06:08:10.004Z,4.37
2023-04-20T06:10:37.055Z,5.23
2023-04-20T06:13:04.086Z,4.83
2023-04-20T06:15:31.296Z,5.10
2023-04-20T06:17:58.472Z,5.30
2023-04-20T06:20:25.625Z,6.20
2023-04-20T06:22:52.745Z,5.50
2023-04-20T06:25:20.026Z,5.23
2023-04-20T06:27:47.533Z,5.37
2023-04-20T06:30:14.673Z,6.30
2023-04-20T06:32:41.784Z,6.00
2023-04-20T06:35:08.986Z,5.50
2023-04-20T06:37:36.662Z,6.93
2023-04-20T06:40:08.143Z,4.80
2023-04-20T06:42:36.313Z,5.77
2023-04-20T06:45:03.536Z,6.47
2023-04-20T06:47:33.942Z,5.70
2023-04-20T06:50:02.402Z,5.60
2023-04-20T06:52:31.013Z,5.50
2023-04-20T06:54:58.544Z,4.83
2023-04-20T06:57:25.610Z,6.10
2023-04-20T06:59:52.659Z,6.00
2023-04-20T07:02:19.423Z,5.83
2023-04-20T07:04:46.528Z,6.03
2023-04-20T07:07:13.581Z,5.60
2023-04-20T07:09:40.610Z,6.83
2023-04-20T07:12:07.747Z,6.50
2023-04-20T07:14:34.808Z,5.67
2023-04-20T07:17:01.873Z,5.87
2023-04-20T07:19:28.961Z,6.17
2023-04-20T07:21:56.008Z,6.23
2023-04-20T07:24:23.038Z,5.47
2023-04-20T07:26:50.145Z,5.37
2023-04-20T07:29:17.380Z,5.63
2023-04-20T07:31:44.681Z,4.93
2023-04-20T07:34:11.802Z,5.43
2023-04-20T07:36:39.061Z,5.43
2023-04-20T07:39:06.217Z,5.90
2023-04-20T07:41:33.326Z,5.83
2023-04-20T07:44:00.387Z,5.47
2023-04-20T07:46:28.445Z,5.10
2023-04-20T07:48:55.537Z,5.50
2023-04-20T07:51:22.162Z,6.30
2023-04-20T07:53:49.223Z,6.17
2023-04-20T07:56:16.266Z,5.80
2023-04-20T07:58:43.332Z,5.90
2023-04-20T08:01:11.342Z,5.73
2023-04-20T08:03:38.728Z,5.00
2023-04-20T08:06:06.399Z,5.50
2023-04-20T08:08:33.661Z,6.40
2023-04-20T08:11:00.715Z,5.07
2023-04-20T08:13:32.131Z,5.97
2023-04-20T08:15:59.227Z,5.70
2023-04-20T08:18:26.273Z,6.07
2023-04-20T08:20:53.340Z,5.73
2023-04-20T08:23:20.427Z,6.00
2023-04-20T08:25:47.460Z,5.90
2023-04-20T08:28:24.123Z,5.00
2023-04-20T08:30:59.879Z,5.17
2023-04-20T08:33:27.476Z,5.13
2023-04-20T08:35:54.533Z,3.90
2023-04-20T08:38:30.666Z,5.80
2023-04-20T08:41:00.661Z,5.37
2023-04-20T08:43:27.756Z,4.70
2023-04-20T08:45:58.920Z,5.33
2023-04-20T08:48:27.018Z,4.70
2023-04-20T08:50:55.707Z,5.30
2023-04-20T08:53:22.819Z,4.83
2023-04-20T08:55:50.677Z,4.40
2023-04-20T08:58:18.234Z,5.30
2023-04-20T09:00:50.994Z,4.97
2023-04-20T09:03:18.230Z,5.03
2023-04-20T09:05:45.376Z,4.73
2023-04-20T09:08:12.507Z,4.50
2023-04-20T09:10:43.585Z,4.83
2023-04-20T09:13:23.507Z,5.10
2023-04-20T09:15:50.644Z,4.57
2023-04-20T09:18:18.725Z,4.50
2023-04-20T09:20:46.084Z,4.77
2023-04-20T09:23:13.151Z,4.27
2023-04-20T09:25:41.101Z,4.20
2023-04-20T09:28:09.022Z,3.80
2023-04-20T09:30:43.926Z,4.73
2023-04-20T09:33:12.268Z,4.13
2023-04-20T09:35:40.425Z,3.70
2023-04-20T09:38:11.475Z,3.70
2023-04-20T09:40:38.921Z,3.60
2023-04-20T09:43:24.258Z,3.70
2023-04-20T09:45:51.470Z,3.50
2023-04-20T09:48:18.933Z,3.90
2023-04-20T09:50:50.004Z,3.23
2023-04-20T09:53:19.520Z,4.10
2023-04-20T09:55:51.223Z,4.50
2023-04-20T09:58:21.497Z,3.47
2023-04-20T10:00:49.040Z,3.47
2023-04-20T10:03:20.378Z,4.57
2023-04-20T10:05:47.490Z,3.97
2023-04-20T10:08:14.665Z,3.43
2023-04-20T10:10:47.593Z,3.60
2023-04-20T10:13:15.162Z,3.80
2023-04-20T10:15:42.777Z,3.60
2023-04-20T10:18:24.440Z,3.80
2023-04-20T10:21:03.656Z,3.87
2023-04-20T10:23:30.884Z,3.27
2023-04-20T10:26:00.472Z,3.37
2023-04-20T10:28:41.625Z,3.37
2023-04-20T10:31:12.745Z,2.93
2023-04-20T10:33:52.786Z,3.13
2023-04-20T10:36:32.117Z,2.67
2023-04-20T10:39:01.421Z,3.23
2023-04-20T10:41:28.493Z,3.23
2023-04-20T10:43:55.566Z,3.20
2023-04-20T10:46:24.199Z,3.13
2023-04-20T10:48:54.748Z,3.20
2023-04-20T10:51:22.001Z,2.87
2023-04-20T10:54:07.982Z,2.87
2023-04-20T10:56:42.056Z,3.03
2023-04-20T10:59:11.314Z,3.17
2023-04-20T11:01:38.700Z,3.40
2023-04-20T11:04:05.530Z,2.83
2023-04-20T11:06:32.569Z,2.70
2023-04-20T11:08:59.662Z,2.37
2023-04-20T11:11:28.199Z,2.67
2023-04-20T11:14:12.000Z,3.07
2023-04-20T11:19:10.056Z,2.77
2023-04-20T11:21:42.484Z,3.00
2023-04-20T11:24:23.536Z,2.50
2023-04-20T11:26:51.104Z,2.83
2023-04-20T11:29:34.967Z,2.67
2023-04-20T11:32:11.595Z,2.73
2023-04-20T11:34:39.627Z,2.33
2023-04-20T11:37:14.012Z,2.97
2023-04-20T11:39:41.687Z,2.60
2023-04-20T11:42:09.004Z,2.70
2023-04-20T11:44:37.004Z,2.70
2023-04-20T11:47:04.517Z,3.20
2023-04-20T11:49:31.743Z,3.10
2023-04-20T11:51:58.833Z,2.90
2023-04-20T11:54:27.234Z,3.30
2023-04-20T11:56:54.293Z,3.17
2023-04-20T11:59:21.877Z,2.93
2023-04-20T12:01:49.009Z,2.70
2023-04-20T12:04:16.756Z,3.07
2023-04-20T12:06:44.767Z,3.20
2023-04-20T12:09:13.357Z,2.83
2023-04-20T12:11:40.802Z,3.23
2023-04-20T12:14:07.960Z,3.43
2023-04-20T12:16:35.091Z,3.30
2023-04-20T12:19:02.141Z,2.70
2023-04-20T12:21:29.186Z,3.37
2023-04-20T12:23:57.606Z,3.47
2023-04-20T12:26:34.611Z,3.10
2023-04-20T12:29:04.764Z,3.17
2023-04-20T12:31:31.849Z,2.77
2023-04-20T12:33:58.983Z,2.77
2023-04-20T12:36:25.792Z,2.97
2023-04-20T12:38:52.846Z,2.53
2023-04-20T12:41:20.124Z,3.10
2023-04-20T12:43:47.178Z,3.50
2023-04-20T12:46:14.301Z,3.13
2023-04-20T12:48:41.521Z,3.47
2023-04-20T12:51:08.705Z,3.03
2023-04-20T12:53:35.858Z,3.23
2023-04-20T12:56:02.961Z,3.37
2023-04-20T12:58:30.657Z,2.90
2023-04-20T13:00:57.897Z,2.93
2023-04-20T13:03:25.470Z,3.10
2023-04-20T13:05:52.246Z,3.37
2023-04-20T13:08:19.822Z,2.73
2023-04-20T13:10:46.968Z,3.80
2023-04-20T13:13:13.669Z,2.57
2023-04-20T13:15:40.822Z,2.73
2023-04-20T13:18:09.507Z,2.77
2023-04-20T13:20:36.494Z,3.03
2023-04-20T13:23:04.430Z,3.10
2023-04-20T13:25:33.326Z,3.10
2023-04-20T13:28:01.560Z,3.43
2023-04-20T13:30:28.798Z,3.03
2023-04-20T13:32:55.975Z,2.53
2023-04-20T13:35:23.371Z,3.00
2023-04-20T13:37:50.481Z,2.77
2023-04-20T13:40:17.641Z,2.53
2023-04-20T13:42:44.742Z,3.23
2023-04-20T13:45:12.112Z,2.60
2023-04-20T13:47:39.956Z,3.00
2023-04-20T13:50:07.656Z,3.37
2023-04-20T13:52:35.379Z,3.13
2023-04-20T13:55:02.679Z,3.10
2023-04-20T13:57:31.520Z,2.70
2023-04-20T14:00:00.722Z,2.97
2023-04-20T14:02:28.277Z,3.27
2023-04-20T14:04:56.354Z,2.83
2023-04-20T14:07:23.443Z,2.70
2023-04-20T14:09:50.961Z,2.87
2023-04-20T14:12:18.052Z,2.80
2023-04-20T14:14:45.226Z,2.90
2023-04-20T14:17:12.454Z,2.60
2023-04-20T14:19:39.510Z,2.27
2023-04-20T14:22:06.585Z,2.33
2023-04-20T14:24:33.702Z,2.23
2023-04-20T14:27:01.851Z,2.27
2023-04-20T14:29:28.919Z,2.40
2023-04-20T14:31:56.070Z,2.20
2023-04-20T14:34:23.207Z,2.40
2023-04-20T14:36:50.248Z,2.40
2023-04-20T14:39:19.829Z,2.20
2023-04-20T14:41:47.016Z,2.37
2023-04-20T14:44:14.050Z,2.50
2023-04-20T14:46:42.535Z,2.30
2023-04-20T14:49:10.596Z,2.40
2023-04-20T14:51:37.679Z,2.70
2023-04-20T14:54:04.764Z,2.50
2023-04-20T14:56:31.396Z,2.53
2023-04-20T14:58:59.498Z,2.67
2023-04-20T15:01:27.977Z,2.60
2023-04-20T15:03:55.521Z,3.17
2023-04-20T15:06:23.052Z,3.07
2023-04-20T15:08:50.364Z,2.80
2023-04-20T15:11:16.965Z,3.00
2023-04-20T15:13:44.006Z,2.97
2023-04-20T15:16:11.102Z,2.63
2023-04-20T15:18:38.138Z,2.90
2023-04-20T15:21:05.459Z,2.67
2023-04-20T15:23:32.484Z,3.10
2023-04-20T15:25:59.520Z,2.90
2023-04-20T15:28:26.562Z,2.97
2023-04-20T15:30:53.632Z,3.13
2023-04-20T15:33:20.493Z,2.93
2023-04-20T15:35:47.567Z,3.03
2023-04-20T15:38:14.582Z,3.73
2023-04-20T15:40:41.621Z,3.27
2023-04-20T15:43:08.711Z,3.87
2023-04-20T15:45:35.925Z,3.60
2023-04-20T15:48:03.144Z,3.80
2023-04-20T15:50:30.334Z,4.47
2023-04-20T15:52:57.351Z,4.60
2023-04-20T15:55:24.497Z,4.40
2023-04-20T15:57:56.937Z,3.77
2023-04-20T16:00:24.305Z,3.70
2023-04-20T16:02:53.465Z,4.07
2023-04-20T16:05:21.140Z,4.33
2023-04-20T16:07:48.262Z,4.37
2023-04-20T16:10:15.367Z,4.10
2023-04-20T16:12:42.404Z,4.10
2023-04-20T16:15:09.600Z,4.63
2023-04-20T16:17:36.678Z,4.13
2023-04-20T16:20:04.964Z,4.20
2023-04-20T16:22:32.040Z,4.60
2023-04-20T16:24:59.138Z,4.00
2023-04-20T16:27:26.660Z,4.40
2023-04-20T16:29:53.794Z,4.70
2023-04-20T16:32:20.912Z,4.50
2023-04-20T16:34:48.078Z,4.97
2023-04-20T16:37:15.155Z,5.37
2023-04-20T16:39:42.356Z,4.80
2023-04-20T16:42:09.491Z,5.07
2023-04-20T16:44:36.534Z,5.30
2023-04-20T16:47:03.786Z,5.27
2023-04-20T16:49:31.013Z,5.20
2023-04-20T16:51:58.196Z,7.00
2023-04-20T16:54:25.293Z,6.57
2023-04-20T16:56:51.909Z,7.90
2023-04-20T16:59:19.007Z,8.53
2023-04-20T17:01:46.091Z,8.33
2023-04-20T17:04:13.316Z,9.10
2023-04-20T17:06:40.399Z,8.00
2023-04-20T17:09:07.292Z,9.00
2023-04-20T17:11:35.961Z,8.07
2023-04-20T17:14:03.401Z,9.23
2023-04-20T17:16:30.533Z,8.77
2023-04-20T17:18:57.622Z,8.60
2023-04-20T17:21:25.694Z,8.53
2023-04-20T17:23:52.799Z,8.43
2023-04-20T17:26:19.852Z,9.13
2023-04-20T17:28:46.938Z,9.03
2023-04-20T17:31:14.042Z,8.80
2023-04-20T17:33:41.118Z,9.00
2023-04-20T17:36:08.215Z,8.97
2023-04-20T17:38:36.573Z,9.07
2023-04-20T17:41:04.752Z,6.90
2023-04-20T17:43:32.026Z,12.87
2023-04-20T17:46:00.253Z,7.23
2023-04-20T17:48:27.446Z,6.60
2023-04-20T17:50:54.859Z,6.10
2023-04-20T17:53:22.522Z,6.70
2023-04-20T17:55:49.534Z,8.20
2023-04-20T17:58:17.437Z,6.30
2023-04-20T18:00:44.384Z,6.47
2023-04-20T18:03:11.819Z,6.03
2023-04-20T18:05:39.007Z,6.40
2023-04-20T18:08:06.330Z,5.73
2023-04-20T18:10:33.945Z,6.37
2023-04-20T18:13:00.592Z,6.37
2023-04-20T18:15:27.707Z,6.40
2023-04-20T18:20:21.422Z,6.33
2023-04-20T18:22:50.241Z,6.30
2023-04-20T18:25:19.187Z,6.70
2023-04-20T18:27:46.462Z,6.43
2023-04-20T18:30:14.052Z,6.23
2023-04-20T18:32:41.265Z,6.67
2023-04-20T18:35:08.808Z,6.70
2023-04-20T18:37:35.894Z,7.93
2023-04-20T18:40:03.631Z,7.20
2023-04-20T18:42:30.796Z,6.70
2023-04-20T18:44:57.819Z,6.03
2023-04-20T18:47:26.262Z,6.70
2023-04-20T18:49:53.458Z,6.00
2023-04-20T18:52:20.858Z,6.43
2023-04-20T18:54:48.585Z,7.50
2023-04-20T18:57:15.663Z,6.47
2023-04-20T18:59:42.713Z,6.40
2023-04-20T19:02:10.279Z,6.93
2023-04-20T19:04:37.435Z,6.63
2023-04-20T19:07:04.588Z,6.87
2023-04-20T19:09:31.646Z,7.63
2023-04-20T19:11:58.738Z,8.13
2023-04-20T19:14:25.829Z,7.57
2023-04-20T19:16:52.614Z,8.30
2023-04-20T19:19:19.909Z,8.77
2023-04-20T19:21:48.242Z,7.93
2023-04-20T19:24:15.427Z,7.80
2023-04-20T19:26:42.561Z,9.17
2023-04-20T19:29:12.096Z,11.32
2023-04-20T19:31:40.269Z,9.50
2023-04-20T19:34:07.447Z,9.47
2023-04-20T19:36:34.718Z,8.53
2023-04-20T19:39:01.789Z,8.80
2023-04-20T19:41:29.255Z,9.13
2023-04-20T19:43:56.421Z,10.30
2023-04-20T19:46:23.555Z,9.60
2023-04-20T19:48:50.733Z,10.00
2023-04-20T19:51:19.148Z,9.33
2023-04-20T19:53:46.516Z,10.30
2023-04-20T19:56:13.594Z,9.43
2023-04-20T19:58:40.343Z,9.83
2023-04-20T20:01:07.412Z,9.53
2023-04-20T20:03:34.620Z,9.60
2023-04-20T20:06:01.822Z,9.70
2023-04-20T20:08:28.447Z,9.93
2023-04-20T20:10:55.579Z,10.10
2023-04-20T20:13:22.647Z,10.27
2023-04-20T20:15:49.741Z,10.53
2023-04-20T20:18:17.551Z,10.07
2023-04-20T20:20:44.615Z,11.87
2023-04-20T20:23:12.491Z,10.77
2023-04-20T20:25:40.061Z,10.70
2023-04-20T20:28:07.333Z,11.20
2023-04-20T20:30:34.422Z,11.80
2023-04-20T20:33:01.530Z,11.43
2023-04-20T20:35:33.178Z,10.00
2023-04-20T20:38:00.668Z,11.00
2023-04-20T20:40:27.764Z,10.90
2023-04-20T20:42:54.886Z,11.00
2023-04-20T20:45:22.111Z,10.20
2023-04-20T20:47:49.216Z,10.70
2023-04-20T20:50:16.301Z,10.87
2023-04-20T20:52:43.446Z,10.57
2023-04-20T20:55:10.819Z,10.73
2023-04-20T20:57:37.590Z,10.13
2023-04-20T21:00:10.298Z,10.93
2023-04-20T21:02:38.016Z,11.60
2023-04-20T21:05:05.612Z,10.53
2023-04-20T21:07:32.780Z,10.50
2023-04-20T21:09:59.968Z,11.53
2023-04-20T21:12:27.079Z,11.97
2023-04-20T21:14:54.236Z,11.37
2023-04-20T21:17:21.431Z,12.07
2023-04-20T21:19:48.687Z,11.53
2023-04-20T21:22:15.757Z,11.43
2023-04-20T21:24:42.780Z,11.40
2023-04-20T21:27:09.888Z,11.60
2023-04-20T21:29:37.135Z,11.50
2023-04-20T21:32:04.299Z,11.37
2023-04-20T21:34:31.526Z,10.67
2023-04-20T21:37:03.903Z,11.73
2023-04-20T21:39:31.755Z,10.70
2023-04-20T21:41:59.659Z,12.17
2023-04-20T21:44:26.973Z,11.93
2023-04-20T21:46:54.078Z,10.67
2023-04-20T21:49:21.146Z,11.90
2023-04-20T21:51:48.205Z,11.77
2023-04-20T21:54:15.874Z,12.83
2023-04-20T21:56:43.109Z,13.83
2023-04-20T21:59:10.208Z,11.83
2023-04-20T22:01:37.310Z,13.00
2023-04-20T22:04:05.038Z,12.47
2023-04-20T22:06:32.590Z,14.47
2023-04-20T22:08:59.772Z,13.63
2023-04-20T22:11:26.811Z,13.50
2023-04-20T22:13:54.005Z,14.57
2023-04-20T22:16:21.674Z,14.23
2023-04-20T22:18:49.116Z,14.87
2023-04-20T22:21:15.875Z,14.90
2023-04-20T22:23:42.917Z,15.87
2023-04-20T22:26:10.007Z,15.20
2023-04-20T22:28:37.050Z,14.07
2023-04-20T22:31:04.182Z,15.40
2023-04-20T22:33:31.335Z,13.30
2023-04-20T22:35:57.969Z,13.17
2023-04-20T22:38:25.122Z,15.43
2023-04-20T22:40:53.049Z,15.03
2023-04-20T22:43:21.361Z,16.33
2023-04-20T22:45:48.742Z,15.93
2023-04-20T22:48:15.886Z,14.47
2023-04-20T22:50:42.915Z,15.60
2023-04-20T22:53:10.093Z,15.73
2023-04-20T22:55:37.114Z,16.20
2023-04-20T22:58:04.211Z,15.80
2023-04-20T23:00:31.424Z,15.77
2023-04-20T23:02:58.681Z,15.13
2023-04-20T23:05:26.388Z,15.27
2023-04-20T23:07:53.823Z,15.53
2023-04-20T23:10:20.923Z,15.77
2023-04-20T23:12:48.032Z,14.90
2023-04-20T23:15:15.243Z,15.67
2023-04-20T23:17:42.515Z,15.80
2023-04-20T23:20:13.724Z,16.77
2023-04-20T23:22:41.068Z,16.87
2023-04-20T23:25:09.487Z,17.13
2023-04-20T23:27:36.548Z,15.67
2023-04-20T23:30:03.599Z,17.53
2023-04-20T23:32:31.116Z,16.33
2023-04-20T23:34:58.178Z,15.40
2023-04-20T23:37:25.233Z,16.70
2023-04-20T23:39:52.261Z,17.90
2023-04-20T23:42:19.314Z,17.13
2023-04-20T23:44:46.361Z,16.47
2023-04-20T23:47:15.381Z,18.13
2023-04-20T23:49:42.406Z,19.37
2023-04-20T23:52:09.426Z,17.67
2023-04-20T23:54:36.449Z,17.37
2023-04-20T23:57:03.511Z,16.83
2023-04-20T23:59:31.135Z,17.60
